createdAt,value
2023-05-07T00:01:58.370Z,17.13
2023-05-07T00:04:36.967Z,16.83
2023-05-07T00:07:09.126Z,17.30
2023-05-07T00:09:41.555Z,16.95
2023-05-07T00:12:13.611Z,17.73
2023-05-07T00:14:46.799Z,17.50
2023-05-07T00:17:19.119Z,19.17
2023-05-07T00:19:51.328Z,17.70
2023-05-07T00:22:23.569Z,15.98
2023-05-07T00:24:55.794Z,16.15
2023-05-07T00:27:27.861Z,16.95
2023-05-07T00:29:59.962Z,18.15
2023-05-07T00:32:32.127Z,16.23
2023-05-07T00:35:06.041Z,16.65
2023-05-07T00:37:38.220Z,15.95
2023-05-07T00:40:11.079Z,16.45
2023-05-07T00:42:48.360Z,16.02
2023-05-07T00:45:20.494Z,16.05
2023-05-07T00:47:52.817Z,17.00
2023-05-07T00:50:25.500Z,15.43
2023-05-07T00:52:58.339Z,16.25
2023-05-07T00:55:30.730Z,16.27
2023-05-07T00:58:02.888Z,16.23
2023-05-07T01:00:35.805Z,16.10
2023-05-07T01:03:08.035Z,15.93
2023-05-07T01:05:42.299Z,15.80
2023-05-07T01:08:16.985Z,15.75
2023-05-07T01:10:49.577Z,15.85
2023-05-07T01:13:22.323Z,18.50
2023-05-07T01:15:54.810Z,16.52
2023-05-07T01:18:27.808Z,16.45
2023-05-07T01:21:01.385Z,16.58
2023-05-07T01:23:35.034Z,16.83
2023-05-07T01:26:07.517Z,16.55
2023-05-07T01:28:40.335Z,17.52
2023-05-07T01:31:15.435Z,17.23
2023-05-07T01:33:51.357Z,18.48
2023-05-07T01:36:27.220Z,16.95
2023-05-07T01:39:00.428Z,18.45
2023-05-07T01:41:32.858Z,17.77
2023-05-07T01:44:05.959Z,18.13
2023-05-07T01:46:38.219Z,18.40
2023-05-07T01:49:11.451Z,17.88
2023-05-07T01:51:44.732Z,17.63
2023-05-07T01:54:17.735Z,17.50
2023-05-07T01:56:50.194Z,16.05
2023-05-07T01:59:22.262Z,16.50
2023-05-07T02:01:54.547Z,18.63
2023-05-07T02:04:26.704Z,16.02
2023-05-07T02:06:58.847Z,16.83
2023-05-07T02:09:31.248Z,15.88
2023-05-07T02:12:03.467Z,15.85
2023-05-07T02:14:35.686Z,17.13
2023-05-07T02:17:09.200Z,16.80
2023-05-07T02:19:41.287Z,16.35
2023-05-07T02:22:13.465Z,15.63
2023-05-07T02:24:45.804Z,16.63
2023-05-07T02:27:17.943Z,16.33
2023-05-07T02:29:50.098Z,16.20
2023-05-07T02:32:23.323Z,16.15
2023-05-07T02:34:56.523Z,16.70
2023-05-07T02:37:28.606Z,15.75
2023-05-07T02:40:00.720Z,16.23
2023-05-07T02:42:32.875Z,17.52
2023-05-07T02:45:06.082Z,16.23
2023-05-07T02:47:38.281Z,14.73
2023-05-07T02:50:11.114Z,15.07
2023-05-07T02:52:43.588Z,16.23
2023-05-07T02:55:15.992Z,17.48
2023-05-07T02:57:48.320Z,17.52
2023-05-07T03:00:21.475Z,16.33
2023-05-07T03:02:53.683Z,16.85
2023-05-07T03:05:26.889Z,16.77
2023-05-07T03:07:59.047Z,18.92
2023-05-07T03:10:31.871Z,16.67
2023-05-07T03:13:04.834Z,15.93
2023-05-07T03:15:37.033Z,17.52
2023-05-07T03:18:09.390Z,16.27
2023-05-07T03:20:41.744Z,16.95
2023-05-07T03:23:14.019Z,17.33
2023-05-07T03:25:46.263Z,16.67
2023-05-07T03:28:18.464Z,17.73
2023-05-07T03:30:50.715Z,16.13
2023-05-07T03:33:23.304Z,16.38
2023-05-07T03:35:55.862Z,16.00
2023-05-07T03:38:28.019Z,15.25
2023-05-07T03:41:00.130Z,14.43
2023-05-07T03:43:32.308Z,16.23
2023-05-07T03:46:04.457Z,16.25
2023-05-07T03:48:36.576Z,14.88
2023-05-07T03:51:08.676Z,14.15
2023-05-07T03:53:40.742Z,15.88
2023-05-07T03:56:12.943Z,14.40
2023-05-07T03:58:45.971Z,14.70
2023-05-07T04:01:18.199Z,14.45
2023-05-07T04:03:50.408Z,14.25
2023-05-07T04:06:22.736Z,13.90
2023-05-07T04:08:54.912Z,15.40
2023-05-07T04:11:27.863Z,14.43
2023-05-07T04:14:00.081Z,15.18
2023-05-07T04:16:32.365Z,12.75
2023-05-07T04:19:04.509Z,13.57
2023-05-07T04:21:40.148Z,13.55
2023-05-07T04:24:12.210Z,13.55
2023-05-07T04:26:44.376Z,13.10
2023-05-07T04:29:16.524Z,14.25
2023-05-07T04:31:48.748Z,14.52
2023-05-07T04:34:22.368Z,13.90
2023-05-07T04:36:54.546Z,13.50
2023-05-07T04:39:26.640Z,13.35
2023-05-07T04:41:58.738Z,13.82
2023-05-07T04:44:32.389Z,12.48
2023-05-07T04:47:04.642Z,12.80
2023-05-07T04:49:38.134Z,12.27
2023-05-07T04:52:10.312Z,14.05
2023-05-07T04:54:42.461Z,13.70
2023-05-07T04:57:15.254Z,14.02
2023-05-07T04:59:47.382Z,12.82
2023-05-07T05:02:20.833Z,13.02
2023-05-07T05:13:18.068Z,11.68
2023-05-07T05:36:29.959Z,12.27
2023-05-07T07:53:10.062Z,8.75
2023-05-07T09:01:46.136Z,7.13
2023-05-07T09:44:17.701Z,7.82
2023-05-07T09:47:58.410Z,8.40
2023-05-07T10:22:08.316Z,7.60
2023-05-07T10:29:42.799Z,10.15
2023-05-07T10:48:44.879Z,7.68
2023-05-07T11:07:57.269Z,7.55
2023-05-07T11:51:41.216Z,7.68
2023-05-07T12:09:45.071Z,7.63
2023-05-07T12:28:44.566Z,7.97
2023-05-07T12:31:27.540Z,7.75
2023-05-07T12:35:27.947Z,7.85
2023-05-07T12:42:49.406Z,7.28
2023-05-07T12:45:24.316Z,6.28
2023-05-07T12:48:46.258Z,7.38
2023-05-07T12:51:41.126Z,6.63
2023-05-07T12:58:08.911Z,6.50
2023-05-07T13:04:16.350Z,6.35
2023-05-07T13:06:49.231Z,5.63
2023-05-07T13:12:55.679Z,5.78
2023-05-07T13:16:22.520Z,5.55
2023-05-07T13:19:13.837Z,5.32
2023-05-07T13:22:01.507Z,4.63
2023-05-07T13:28:06.756Z,5.65
2023-05-07T13:38:44.829Z,4.13
2023-05-07T13:42:14.398Z,4.40
2023-05-07T13:45:23.947Z,4.63
2023-05-07T13:52:33.385Z,3.88
2023-05-07T14:03:22.237Z,3.67
2023-05-07T14:06:14.450Z,3.33
2023-05-07T14:09:25.262Z,4.07
2023-05-07T14:15:19.767Z,4.10
2023-05-07T14:17:52.867Z,4.68
2023-05-07T14:20:25.376Z,4.50
2023-05-07T14:22:59.611Z,4.57
2023-05-07T14:25:41.044Z,3.50
2023-05-07T14:28:30.779Z,4.72
2023-05-07T14:31:06.006Z,4.75
2023-05-07T14:33:42.476Z,4.60
2023-05-07T14:36:17.035Z,4.82
2023-05-07T14:38:52.478Z,5.10
2023-05-07T14:41:32.646Z,4.63
2023-05-07T14:47:02.256Z,4.75
2023-05-07T14:49:41.377Z,5.97
2023-05-07T14:52:24.841Z,5.75
2023-05-07T14:55:00.923Z,5.63
2023-05-07T14:57:38.831Z,6.53
2023-05-07T15:00:17.691Z,6.30
2023-05-07T15:02:50.931Z,5.82
2023-05-07T15:05:33.617Z,5.78
2023-05-07T15:08:19.099Z,5.93
2023-05-07T15:11:26.319Z,5.80
2023-05-07T15:14:06.970Z,5.18
2023-05-07T15:16:44.703Z,5.32
2023-05-07T15:19:43.114Z,6.57
2023-05-07T15:22:34.661Z,5.75
2023-05-07T15:25:13.962Z,5.47
2023-05-07T15:27:52.748Z,5.77
2023-05-07T15:30:28.123Z,5.43
2023-05-07T15:33:05.777Z,5.28
2023-05-07T15:35:43.794Z,6.85
2023-05-07T16:12:48.358Z,5.93
2023-05-07T16:15:20.872Z,5.72
2023-05-07T16:23:02.555Z,6.15
2023-05-07T16:47:17.437Z,5.30
2023-05-07T16:50:19.409Z,5.35
2023-05-07T16:53:51.560Z,5.05
2023-05-07T16:58:02.976Z,5.22
2023-05-07T17:03:29.931Z,5.78
2023-05-07T17:06:07.859Z,5.78
2023-05-07T17:08:46.473Z,5.35
2023-05-07T17:12:20.773Z,5.55
2023-05-07T17:20:03.140Z,5.38
2023-05-07T17:30:31.203Z,5.70
2023-05-07T17:37:26.486Z,5.65
2023-05-07T17:39:58.762Z,6.05
2023-05-07T17:42:32.971Z,5.70
2023-05-07T17:45:06.681Z,6.68
2023-05-07T17:47:38.890Z,5.57
2023-05-07T17:50:12.472Z,6.50
2023-05-07T17:52:44.909Z,6.75
2023-05-07T17:55:42.058Z,6.05
2023-05-07T17:58:41.514Z,5.45
2023-05-07T18:01:58.901Z,5.32
2023-05-07T18:09:28.367Z,7.03
2023-05-07T18:12:01.507Z,6.22
2023-05-07T18:14:39.918Z,5.82
2023-05-07T18:17:22.932Z,6.10
2023-05-07T18:19:55.508Z,5.97
2023-05-07T18:22:28.106Z,6.30
2023-05-07T18:25:00.501Z,6.60
2023-05-07T18:27:36.414Z,6.57
2023-05-07T18:30:09.846Z,5.70
2023-05-07T18:32:48.376Z,5.65
2023-05-07T18:35:20.664Z,6.07
2023-05-07T18:37:54.103Z,6.03
2023-05-07T18:40:27.422Z,5.45
2023-05-07T18:43:07.072Z,7.25
2023-05-07T18:45:39.852Z,6.40
2023-05-07T18:48:17.393Z,6.13
2023-05-07T18:50:58.794Z,5.05
2023-05-07T18:53:33.738Z,5.45
2023-05-07T18:56:07.859Z,5.13
2023-05-07T18:58:40.188Z,5.38
2023-05-07T19:01:12.629Z,5.53
2023-05-07T19:03:44.846Z,5.63
2023-05-07T19:06:17.361Z,5.32
2023-05-07T19:08:52.626Z,5.72
2023-05-07T19:11:30.842Z,7.88
2023-05-07T19:14:04.966Z,6.07
2023-05-07T19:16:37.668Z,4.57
2023-05-07T19:19:10.478Z,6.50
2023-05-07T19:21:45.259Z,4.93
2023-05-07T19:24:20.628Z,5.40
2023-05-07T19:26:56.255Z,5.80
2023-05-07T19:29:28.822Z,5.05
2023-05-07T19:32:02.070Z,4.80
2023-05-07T19:34:34.443Z,5.72
2023-05-07T19:37:06.906Z,5.63
2023-05-07T19:39:39.283Z,6.28
2023-05-07T19:42:11.981Z,6.00
2023-05-07T19:44:44.663Z,5.65
2023-05-07T19:47:19.800Z,6.50
2023-05-07T19:49:56.726Z,6.00
2023-05-07T19:52:28.929Z,6.05
2023-05-07T19:55:07.267Z,5.90
2023-05-07T19:57:39.590Z,5.75
2023-05-07T20:00:13.308Z,6.13
2023-05-07T20:02:46.978Z,8.23
2023-05-07T20:05:19.516Z,6.78
2023-05-07T20:07:52.195Z,6.43
2023-05-07T20:10:24.721Z,6.53
2023-05-07T20:12:57.356Z,7.43
2023-05-07T20:15:29.791Z,7.57
2023-05-07T20:18:02.121Z,7.07
2023-05-07T20:20:34.690Z,7.13
2023-05-07T20:23:06.971Z,6.22
2023-05-07T20:25:45.086Z,6.32
2023-05-07T20:28:17.608Z,6.68
2023-05-07T20:30:50.154Z,7.18
2023-05-07T20:33:22.563Z,6.93
2023-05-07T20:35:55.340Z,7.25
2023-05-07T20:38:34.123Z,7.15
2023-05-07T20:41:12.988Z,7.22
2023-05-07T20:43:45.282Z,6.97
2023-05-07T20:46:17.575Z,6.68
2023-05-07T20:48:50.257Z,7.15
2023-05-07T20:51:22.763Z,7.28
2023-05-07T20:53:55.338Z,6.10
2023-05-07T20:56:30.915Z,7.95
2023-05-07T20:59:03.219Z,6.32
2023-05-07T21:01:38.337Z,6.32
2023-05-07T21:04:10.883Z,6.72
2023-05-07T21:06:43.959Z,6.50
2023-05-07T21:09:16.315Z,6.07
2023-05-07T21:11:48.912Z,6.45
2023-05-07T21:14:23.920Z,6.88
2023-05-07T21:16:56.516Z,6.97
2023-05-07T21:19:29.061Z,7.13
2023-05-07T21:22:01.571Z,6.47
2023-05-07T21:24:36.893Z,7.57
2023-05-07T21:27:09.408Z,6.50
2023-05-07T21:29:41.891Z,6.35
2023-05-07T21:32:14.397Z,6.85
2023-05-07T21:34:50.734Z,6.55
2023-05-07T21:37:23.541Z,6.57
2023-05-07T21:39:55.855Z,7.30
2023-05-07T21:42:31.903Z,7.28
2023-05-07T21:45:07.654Z,7.75
2023-05-07T21:47:42.959Z,6.15
2023-05-07T21:50:15.697Z,6.70
2023-05-07T21:52:51.986Z,7.28
2023-05-07T21:55:24.305Z,6.10
2023-05-07T21:58:04.893Z,6.63
2023-05-07T22:00:38.513Z,7.00
2023-05-07T22:03:11.194Z,6.68
2023-05-07T22:05:43.610Z,7.13
2023-05-07T22:08:16.155Z,5.90
2023-05-07T22:10:48.499Z,6.72
2023-05-07T22:13:24.031Z,7.25
2023-05-07T22:15:59.222Z,6.95
2023-05-07T22:18:31.658Z,6.53
2023-05-07T22:21:04.102Z,6.88
2023-05-07T22:23:36.408Z,7.20
2023-05-07T22:26:13.656Z,6.82
2023-05-07T22:28:46.185Z,6.80
2023-05-07T22:31:18.481Z,6.80
2023-05-07T22:33:50.797Z,6.53
2023-05-07T22:36:23.008Z,7.50
2023-05-07T22:38:55.521Z,6.68
2023-05-07T22:41:28.203Z,7.13
2023-05-07T22:44:00.959Z,7.50
2023-05-07T22:46:36.471Z,6.70
2023-05-07T22:49:11.863Z,7.20
2023-05-07T22:51:44.309Z,6.75
2023-05-07T22:54:16.823Z,7.45
2023-05-07T22:56:49.346Z,7.07
2023-05-07T22:59:22.035Z,7.68
2023-05-07T23:01:58.034Z,7.45
2023-05-07T23:04:30.307Z,6.75
2023-05-07T23:07:02.663Z,7.38
2023-05-07T23:09:45.903Z,6.75
2023-05-07T23:16:08.335Z,8.05
2023-05-07T23:23:14.390Z,7.07
2023-05-07T23:30:01.272Z,7.07
2023-05-07T23:41:47.917Z,7.50
